Espace membre
Imprimable
Auderghem, 29/10/2017, BEL - Trail Brussel
Liste des rapports > 13km - Classement
Recherche: Page: [1]
26 Entrées
 
Les réclamations ne sont plus acceptées, les résultats sont considérés comme définitifs.
RangNrNomAgeIOCEquipeRéelTempsTkmMoy.ScrLocalité
Vos photos grâce à Sportograf1.2874BOREUX Baudouin53BEL59:0659:354:58 12.0857CHASTRE
Vos photos grâce à Sportograf2.2370ROUMEGUERE Thierry53FRA1:04:301:04:365:23 11.15119
Vos photos grâce à Sportograf3.1042BULENS Frank54BEL1:04:281:05:185:27 11.03132
Vos photos grâce à Sportograf4.1043BUX Antonio53BEL1:06:081:06:205:32 10.86149
Vos photos grâce à Sportograf5.426VUYLSTEKE Philippe57BEL1:06:481:07:035:36 10.74156
Vos photos grâce à Sportograf6.1058CHRISPEELS Freek50BEL1:08:491:09:295:48 10.36193
Vos photos grâce à Sportograf7.2875SMEYERS Axel50BEL1:09:571:10:175:52 10.25207HEIST OP DEN BERG
Vos photos grâce à Sportograf8.2852MAMET Pierre58BEL1:10:051:10:385:54 10.20216BRUXELLES
Vos photos grâce à Sportograf9.2894HAYE Alexander50BEL1:10:131:10:445:54 10.18220
Vos photos grâce à Sportograf10.1313NONET Philippe51BEL1:11:191:11:526:00 10.02236
Vos photos grâce à Sportograf11.2346VAN VLIET Ron56NLD1:11:531:12:416:04 9.91249VLISSINGEN
Vos photos grâce à Sportograf12.1004ANTHONISSEN Denis53BEL1:13:131:13:466:09 9.76265
Vos photos grâce à Sportograf13.1146DUFAYS Damien53BEL1:13:401:13:556:10 9.74269
Vos photos grâce à Sportograf14.1008BARTEK Ivan56SVK1:13:551:14:166:12 9.70277
Vos photos grâce à Sportograf15.1152ELST Lieven57BEL1:13:451:14:466:14 9.63285
Vos photos grâce à Sportograf16.2841VAN ZEVEREN Alexis51BEL1:14:151:15:036:16 9.60289OVERIJSE
Vos photos grâce à Sportograf17.2304VANDER HOEVEN Hendrik51BEL1:15:421:15:546:20 9.49301ASSE
Vos photos grâce à Sportograf18.1097DE NUL Jo54BEL1:16:531:17:596:30 9.23329
Vos photos grâce à Sportograf19.1475VEKEMAN Luc56BEL1:17:471:18:296:33 9.18337
Vos photos grâce à Sportograf20.1404TEMMERMAN Frank50BEL1:18:221:18:496:35 9.14343
Vos photos grâce à Sportograf21.1372SAVONET Eric59BEL1:19:581:20:406:44 8.93368
Vos photos grâce à Sportograf22.1262LODEWIJCKX Ludo53BEL1:21:241:21:446:49 8.81385
Vos photos grâce à Sportograf23.788OCKERMAN Anthony52BEL1:27:171:28:207:22 8.15463
Vos photos grâce à Sportograf24.1204HUYSMANS Werner53BEL1:28:371:28:497:25 8.11466
Vos photos grâce à Sportograf25.1241LANGLOIS Jean Marc54FRA1:36:511:37:368:08 7.38481
Vos photos grâce à Sportograf26.1446VAN MAELE Philippe59BEL1:54:391:55:469:39 6.22531
DNF: abandon; DSQ: disqualifié; Vitesse en km/h
Page: [1]